Time;durP1;ratioP1;P1;durP2;ratioP2;P2;SDS_P1;SDS_P2;PMS_P1;PMS_P2;Temp;Humidity;BMP_temperature;BMP_pressure;BME280_temperature;BME280_humidity;BME280_pressure;Samples;Min_cycle;Max_cycle;Signal;HPM_P1;HPM_P2
2023/04/03 00:00:31;;;;;;;3.22;3.03;;;;;;;0.56;100.00;102341.41;6106233;23;20533;-76
2023/04/03 00:02:57;;;;;;;3.70;3.47;;;;;;;0.06;100.00;102282.06;6082083;23;20021;-76
2023/04/03 00:05:24;;;;;;;4.47;4.18;;;;;;;0.55;100.00;102350.03;6081306;23;20455;-75
2023/04/03 00:07:50;;;;;;;3.75;3.55;;;;;;;0.14;100.00;102289.13;6082933;23;20032;-75
2023/04/03 00:10:17;;;;;;;3.20;3.00;;;;;;;0.26;100.00;102313.38;6050939;23;20038;-74
2023/04/03 00:12:43;;;;;;;3.22;3.08;;;;;;;0.28;100.00;102322.91;6080935;23;20102;-74
2023/04/03 00:15:10;;;;;;;3.00;2.90;;;;;;;0.50;100.00;102364.56;6080195;23;20041;-74
2023/04/03 00:17:36;;;;;;;3.53;3.28;;;;;;;0.53;100.00;102351.72;6082341;23;20037;-75
2023/04/03 00:20:04;;;;;;;3.72;3.45;;;;;;;0.54;100.00;102353.44;6107819;23;20034;-74
2023/04/03 00:22:31;;;;;;;4.03;3.72;;;;;;;0.53;100.00;102354.28;6056734;23;20030;-74
2023/04/03 00:24:57;;;;;;;3.38;3.17;;;;;;;0.18;100.00;102308.97;6114399;23;20871;-74
2023/04/03 00:27:24;;;;;;;3.65;3.42;;;;;;;0.00;100.00;102285.44;6065266;23;20079;-77
2023/04/03 00:29:50;;;;;;;2.92;2.83;;;;;;;0.12;100.00;102303.72;6085537;23;20032;-75
2023/04/03 00:32:16;;;;;;;3.35;3.22;;;;;;;0.37;100.00;102354.03;6067111;23;20026;-74
2023/04/03 00:34:43;;;;;;;4.30;4.00;;;;;;;0.24;100.00;102330.56;6089756;23;20025;-76
2023/04/03 00:37:10;;;;;;;3.00;2.90;;;;;;;0.63;100.00;102384.59;6084419;23;20094;-75
2023/04/03 00:39:36;;;;;;;3.53;3.33;;;;;;;0.42;100.00;102346.34;6055881;23;20057;-74
2023/04/03 00:42:02;;;;;;;3.40;3.20;;;;;;;0.11;100.00;102288.19;6085176;23;20029;-74
2023/04/03 00:44:35;;;;;;;4.28;3.97;;;;;;;0.64;100.00;102383.72;6053349;23;20034;-74
2023/04/03 00:47:06;;;;;;;3.25;3.05;;;;;;;0.19;100.00;102321.03;6085475;23;20038;-75
2023/04/03 00:49:33;;;;;;;3.37;3.17;;;;;;;0.10;100.00;102312.25;6112890;23;20033;-74
2023/04/03 00:52:00;;;;;;;3.15;2.95;;;;;;;0.28;100.00;102343.56;6057549;23;20023;-75
2023/04/03 00:54:27;;;;;;;2.92;2.83;;;;;;;-0.06;100.00;102312.00;6106705;23;20025;-74
2023/04/03 00:56:56;;;;;;;3.15;3.05;;;;;;;0.41;100.00;102382.50;6055594;23;20032;-76
2023/04/03 00:59:26;;;;;;;3.70;3.47;;;;;;;0.33;100.00;102375.47;6056879;23;20690;-74
2023/04/03 01:01:55;;;;;;;3.40;3.20;;;;;;;0.10;100.00;102332.91;6084575;23;20017;-75
2023/04/03 01:04:32;;;;;;;3.13;3.00;;;;;;;0.46;100.00;102386.91;6056146;23;20018;-74
2023/04/03 01:07:04;;;;;;;2.85;2.75;;;;;;;0.37;100.00;102384.16;6112324;23;20037;-75
2023/04/03 01:09:31;;;;;;;3.45;3.28;;;;;;;0.04;100.00;102330.22;6066777;23;20032;-74
2023/04/03 01:12:20;;;;;;;3.05;2.92;;;;;;;0.18;100.00;102383.84;6103744;23;20029;-73
2023/04/03 01:14:50;;;;;;;3.58;3.28;;;;;;;0.08;100.00;102378.47;6085880;23;20046;-73
2023/04/03 01:17:40;;;;;;;3.15;3.05;;;;;;;0.01;100.00;102381.78;6055332;23;20017;-75
2023/04/03 01:20:28;;;;;;;3.97;3.67;;;;;;;-0.04;100.00;102382.59;6084721;23;20055;-75
2023/04/03 01:23:01;;;;;;;2.92;2.83;;;;;;;-0.07;100.00;102391.97;6089048;23;20195;-74
2023/04/03 01:25:27;;;;;;;2.95;2.85;;;;;;;-0.11;100.00;102385.88;6058425;23;20015;-76
2023/04/03 01:27:54;;;;;;;4.38;4.05;;;;;;;-0.14;100.00;102385.81;6086114;23;20126;-75
2023/04/03 01:30:23;;;;;;;3.53;3.33;;;;;;;-0.80;100.00;102283.94;6064950;23;20033;-75
2023/04/03 01:32:50;;;;;;;3.50;3.20;;;;;;;-0.69;100.00;102307.34;6079136;23;20025;-73
2023/04/03 01:35:16;;;;;;;3.75;3.55;;;;;;;-0.58;100.00;102328.19;6085072;23;20358;-74
2023/04/03 01:37:43;;;;;;;3.03;2.92;;;;;;;-0.22;100.00;102393.41;6109778;23;20029;-74
2023/04/03 01:40:10;;;;;;;4.40;4.10;;;;;;;-0.56;100.00;102336.81;6045727;23;20054;-75
2023/04/03 01:42:36;;;;;;;3.67;3.47;;;;;;;-0.86;100.00;102322.47;6112212;23;20033;-73
2023/04/03 01:45:03;;;;;;;3.65;3.47;;;;;;;-0.29;100.00;102390.69;6033811;23;20022;-75
2023/04/03 01:47:29;;;;;;;4.00;3.80;;;;;;;-1.21;100.00;102246.16;6082389;23;20028;-75
2023/04/03 01:49:56;;;;;;;3.40;3.20;;;;;;;-0.30;100.00;102402.72;6112703;23;20012;-74
2023/04/03 01:52:22;;;;;;;3.00;2.90;;;;;;;-0.54;100.00;102377.28;6083300;23;20022;-75
2023/04/03 01:54:49;;;;;;;9.20;2.90;;;;;;;-0.97;100.00;102296.47;6058491;23;20418;-74
2023/04/03 01:57:15;;;;;;;4.43;3.17;;;;;;;-0.41;100.00;102402.47;6085985;23;20108;-76
2023/04/03 01:59:42;;;;;;;5.75;3.85;;;;;;;-0.41;100.00;102407.63;6108092;23;20041;-74
2023/04/03 02:02:08;;;;;;;3.28;3.17;;;;;;;-0.76;100.00;102362.19;6064354;23;20347;-74
2023/04/03 02:04:35;;;;;;;3.38;3.17;;;;;;;-0.44;100.00;102417.00;6084787;23;20033;-74
2023/04/03 02:07:01;;;;;;;3.10;2.90;;;;;;;-0.55;100.00;102392.72;6059723;23;20037;-74
2023/04/03 02:09:28;;;;;;;3.60;3.30;;;;;;;-0.48;100.00;102402.31;6082960;23;20056;-74
2023/04/03 02:11:54;;;;;;;3.05;2.95;;;;;;;-0.96;100.00;102320.53;6069541;23;20378;-74
2023/04/03 02:14:23;;;;;;;3.63;3.42;;;;;;;-1.42;100.00;102246.56;6110498;23;20531;-74
2023/04/03 02:16:50;;;;;;;2.63;2.53;;;;;;;-0.46;100.00;102405.78;6057783;23;20072;-75
2023/04/03 02:19:16;;;;;;;4.40;4.10;;;;;;;-0.39;100.00;102427.44;6107391;23;20142;-73
2023/04/03 02:21:42;;;;;;;3.50;3.30;;;;;;;-1.25;100.00;102264.09;6058510;23;20026;-74
2023/04/03 02:24:09;;;;;;;4.05;3.13;;;;;;;-0.37;100.00;102416.31;6108470;23;20021;-74
2023/04/03 02:26:35;;;;;;;4.78;3.47;;;;;;;-0.89;100.00;102333.56;6029731;23;20030;-75
2023/04/03 02:29:02;;;;;;;2.78;2.67;;;;;;;-0.39;100.00;102409.41;6087848;23;20102;-73
2023/04/03 02:31:29;;;;;;;2.67;2.58;;;;;;;-1.49;100.00;102229.22;6085527;23;20039;-77
2023/04/03 02:33:55;;;;;;;2.83;2.72;;;;;;;-1.33;100.00;102274.22;6109768;23;20041;-74
2023/04/03 02:36:21;;;;;;;3.40;3.20;;;;;;;-0.85;100.00;102357.72;6054629;23;20089;-75
2023/04/03 02:38:48;;;;;;;3.22;3.05;;;;;;;-0.44;100.00;102422.16;6053831;23;20030;-75
2023/04/03 02:41:15;;;;;;;2.92;2.80;;;;;;;-0.47;100.00;102417.81;6108417;23;20036;-78
2023/04/03 02:43:41;;;;;;;4.38;4.07;;;;;;;-0.45;100.00;102420.44;6050641;23;20037;-73
2023/04/03 02:46:08;;;;;;;3.75;3.55;;;;;;;-0.42;100.00;102425.69;6052592;23;20029;-73
2023/04/03 02:48:37;;;;;;;3.30;3.10;;;;;;;-0.85;100.00;102357.72;6110072;23;20088;-74
2023/04/03 02:51:04;;;;;;;3.10;2.90;;;;;;;-0.44;100.00;102433.38;6063959;23;20026;-74
2023/04/03 02:53:30;;;;;;;2.83;2.72;;;;;;;-0.91;100.00;102358.44;6086775;23;20028;-74
2023/04/03 02:55:57;;;;;;;2.55;2.45;;;;;;;-0.48;100.00;102431.56;6083850;23;20029;-76
2023/04/03 02:58:23;;;;;;;2.83;2.70;;;;;;;-0.86;100.00;102356.00;6052603;23;20026;-76
2023/04/03 03:00:50;;;;;;;3.03;2.92;;;;;;;-1.87;100.00;102195.78;6101029;23;20947;-75
2023/04/03 03:03:16;;;;;;;3.95;3.75;;;;;;;-1.24;100.00;102296.75;6082032;23;20033;-74
2023/04/03 03:05:42;;;;;;;4.82;4.47;;;;;;;-0.60;100.00;102410.69;6054251;23;20460;-73
2023/04/03 03:08:09;;;;;;;4.38;4.18;;;;;;;-0.87;100.00;102370.56;6055904;23;20093;-76
2023/04/03 03:10:35;;;;;;;2.53;2.42;;;;;;;-0.68;100.00;102413.09;6052806;23;20054;-74
2023/04/03 03:13:02;;;;;;;3.42;3.28;;;;;;;-0.64;100.00;102396.84;6108889;23;20029;-75
2023/04/03 03:15:28;;;;;;;3.25;3.10;;;;;;;-0.76;100.00;102375.97;6064563;23;20486;-75
2023/04/03 03:17:55;;;;;;;2.70;2.60;;;;;;;-0.63;100.00;102389.97;6107580;23;20013;-75
2023/04/03 03:20:21;;;;;;;2.85;2.67;;;;;;;-0.89;100.00;102330.13;6079105;23;20038;-72
2023/04/03 03:22:48;;;;;;;2.90;2.80;;;;;;;-0.16;100.00;102427.91;6083198;23;20550;-74
2023/04/03 03:25:14;;;;;;;2.63;2.53;;;;;;;-0.55;100.00;102375.53;6065158;23;20041;-75
2023/04/03 03:27:41;;;;;;;2.90;2.70;;;;;;;-0.03;100.00;102435.06;6108720;23;20027;-73
2023/04/03 03:30:07;;;;;;;3.42;3.13;;;;;;;-0.19;100.00;102400.34;6082883;23;20021;-74
2023/04/03 03:32:34;;;;;;;2.75;2.65;;;;;;;-0.02;100.00;102426.47;6053486;23;20024;-75
2023/04/03 03:35:00;;;;;;;2.60;2.50;;;;;;;-0.02;100.00;102423.88;6084313;23;20400;-75
2023/04/03 03:37:27;;;;;;;2.60;2.50;;;;;;;-0.19;100.00;102389.16;6052303;23;20080;-73
2023/04/03 03:39:53;;;;;;;2.38;2.28;;;;;;;-0.11;100.00;102411.69;6084678;23;20032;-74
2023/04/03 03:42:20;;;;;;;2.35;2.25;;;;;;;-0.04;100.00;102422.97;6053963;23;20144;-73
2023/04/03 03:44:46;;;;;;;4.10;3.50;;;;;;;-0.13;100.00;102413.34;6080501;23;20397;-75
2023/04/03 03:47:13;;;;;;;2.83;2.72;;;;;;;-1.35;100.00;102200.34;6052342;23;20026;-75
2023/04/03 03:49:39;;;;;;;3.20;3.10;;;;;;;-0.03;100.00;102430.75;6082745;23;20040;-75
2023/04/03 03:52:05;;;;;;;2.92;2.83;;;;;;;-0.42;100.00;102364.66;6057147;23;20334;-73
2023/04/03 03:54:32;;;;;;;2.70;2.50;;;;;;;-0.19;100.00;102417.53;6111610;23;20092;-73
2023/04/03 03:56:58;;;;;;;2.72;2.63;;;;;;;-0.33;100.00;102401.78;6083324;23;20393;-74
2023/04/03 03:59:25;;;;;;;3.58;3.33;;;;;;;-0.48;100.00;102377.41;6053863;23;20030;-74
2023/04/03 04:01:51;;;;;;;2.90;2.80;;;;;;;-0.65;100.00;102350.41;6079220;23;20026;-74
2023/04/03 04:04:17;;;;;;;2.70;2.60;;;;;;;-0.20;100.00;102421.84;6078570;23;20042;-73
2023/04/03 04:06:44;;;;;;;2.92;2.78;;;;;;;-0.75;100.00;102349.34;6048525;23;20028;-74
2023/04/03 04:09:11;;;;;;;4.13;3.92;;;;;;;-0.61;100.00;102378.00;6109485;23;20080;-74
2023/04/03 04:11:39;;;;;;;2.75;2.65;;;;;;;-0.26;100.00;102438.06;6054692;23;20026;-73
2023/04/03 04:14:06;;;;;;;2.70;2.60;;;;;;;-0.49;100.00;102395.44;6104930;23;20037;-74
2023/04/03 04:16:33;;;;;;;2.70;2.60;;;;;;;-0.73;100.00;102352.81;6059775;23;20030;-74
2023/04/03 04:18:59;;;;;;;2.55;2.45;;;;;;;-0.48;100.00;102400.63;6086206;23;20595;-74
2023/04/03 04:21:26;;;;;;;2.70;2.60;;;;;;;-0.78;100.00;102357.03;6052184;23;20003;-74
2023/04/03 04:23:52;;;;;;;2.83;2.72;;;;;;;-0.55;100.00;102401.31;6106228;23;20535;-74
2023/04/03 04:26:20;;;;;;;2.80;2.70;;;;;;;-0.59;100.00;102393.50;6035731;23;20022;-76
2023/04/03 04:28:46;;;;;;;2.75;2.65;;;;;;;-1.08;100.00;102323.72;6106877;23;20094;-75
2023/04/03 04:31:12;;;;;;;2.60;2.50;;;;;;;-1.01;100.00;102336.75;6061813;23;20539;-75
2023/04/03 04:33:39;;;;;;;2.67;2.58;;;;;;;-1.43;100.00;102280.00;6107253;23;20097;-74
2023/04/03 04:36:05;;;;;;;2.45;2.35;;;;;;;-0.68;100.00;102415.69;6055453;23;20093;-76
2023/04/03 04:38:32;;;;;;;2.30;2.20;;;;;;;-0.86;100.00;102377.47;6105623;23;20196;-74
2023/04/03 04:40:58;;;;;;;3.22;3.03;;;;;;;-0.50;100.00;102445.25;6052144;23;20030;-74
2023/04/03 04:43:25;;;;;;;2.95;2.75;;;;;;;-0.46;100.00;102447.06;6080963;23;20087;-75
2023/04/03 04:46:11;;;;;;;2.72;2.63;;;;;;;-0.52;100.00;102442.66;6051482;23;20437;-75
2023/04/03 04:48:37;;;;;;;2.50;2.40;;;;;;;-0.87;100.00;102390.31;6081673;23;20049;-75
2023/04/03 04:51:04;;;;;;;2.90;2.70;;;;;;;-0.90;100.00;102400.53;6104752;23;20081;-73
2023/04/03 04:53:31;;;;;;;2.50;2.40;;;;;;;-0.65;100.00;102443.22;6039405;23;20106;-74
2023/04/03 04:55:57;;;;;;;2.97;2.80;;;;;;;-0.95;100.00;102421.06;6107629;23;20092;-74
2023/04/03 04:58:24;;;;;;;2.75;2.60;;;;;;;-1.47;100.00;102327.13;6082273;23;20020;-74
2023/04/03 05:00:58;;;;;;;2.50;2.40;;;;;;;-0.77;100.00;102451.53;6107350;23;20033;-75
2023/04/03 05:03:24;;;;;;;2.97;2.88;;;;;;;-2.06;100.00;102233.06;6055732;23;20018;-76
2023/04/03 05:05:51;;;;;;;2.97;2.83;;;;;;;-1.38;100.00;102359.94;6107910;23;20022;-76
2023/04/03 05:08:21;;;;;;;2.72;2.63;;;;;;;-0.74;100.00;102467.09;6052029;23;20483;-75
2023/04/03 05:10:51;;;;;;;2.50;2.40;;;;;;;-0.83;100.00;102452.28;6031067;23;20080;-74
2023/04/03 05:13:20;;;;;;;2.75;2.55;;;;;;;-0.68;100.00;102477.56;6082455;23;20923;-75
2023/04/03 05:15:47;;;;;;;2.40;2.30;;;;;;;-0.97;100.00;102401.25;6056823;23;20421;-77
2023/04/03 05:18:13;;;;;;;2.58;2.47;;;;;;;-0.98;100.00;102402.97;6059512;23;20033;-75
2023/04/03 05:20:40;;;;;;;3.42;3.17;;;;;;;-0.74;100.00;102440.44;6114428;23;20119;-76
2023/04/03 05:23:06;;;;;;;3.00;2.90;;;;;;;-1.30;100.00;102354.13;6085408;23;20677;-75
2023/04/03 05:25:33;;;;;;;2.83;2.65;;;;;;;-0.39;100.00;102487.63;6087084;23;20040;-74
2023/04/03 05:28:00;;;;;;;2.60;2.50;;;;;;;-0.57;100.00;102462.31;6059772;23;20030;-74
2023/04/03 05:30:26;;;;;;;3.08;2.88;;;;;;;-0.81;100.00;102416.22;6086227;23;20034;-74
2023/04/03 05:32:53;;;;;;;3.28;3.08;;;;;;;-0.25;100.00;102513.75;6086740;23;20025;-75
2023/04/03 05:35:19;;;;;;;3.00;2.80;;;;;;;-1.36;100.00;102296.44;6058582;23;20489;-75
2023/04/03 05:37:46;;;;;;;2.50;2.40;;;;;;;-0.18;100.00;102497.56;6087094;23;20033;-75
2023/04/03 05:40:12;;;;;;;2.75;2.53;;;;;;;-1.10;100.00;102351.13;6065085;23;20378;-75
2023/04/03 05:42:39;;;;;;;2.63;2.53;;;;;;;-0.43;100.00;102449.72;6115433;23;20037;-74
2023/04/03 05:45:06;;;;;;;2.80;2.70;;;;;;;-0.87;100.00;102370.56;6083373;23;20467;-75
2023/04/03 05:47:32;;;;;;;5.07;4.28;;;;;;;-0.79;100.00;102380.19;6030540;23;20041;-78
2023/04/03 05:49:59;;;;;;;3.08;2.97;;;;;;;-0.40;100.00;102462.69;6085501;23;20024;-78
2023/04/03 05:52:31;;;;;;;2.47;2.38;;;;;;;-0.17;100.00;102501.00;6083449;23;20744;-76
2023/04/03 05:54:58;;;;;;;2.50;2.40;;;;;;;-0.05;100.00;102522.78;6055965;23;20029;-76
2023/04/03 05:57:25;;;;;;;2.83;2.67;;;;;;;-0.07;100.00;102521.88;6113390;23;20014;-77
2023/04/03 05:59:51;;;;;;;2.63;2.53;;;;;;;0.18;100.00;102535.28;6083569;23;20084;-77
2023/04/03 06:02:22;;;;;;;2.60;2.50;;;;;;;0.34;100.00;102550.25;6059594;23;20030;-76
2023/04/03 06:04:48;;;;;;;2.58;2.47;;;;;;;0.08;100.00;102511.00;6085428;23;20113;-76
2023/04/03 06:07:20;;;;;;;2.50;2.40;;;;;;;0.48;100.00;102557.38;6111360;23;20703;-77
2023/04/03 06:09:47;;;;;;;2.80;2.70;;;;;;;-0.11;100.00;102445.22;6088717;23;20089;-76
2023/04/03 06:12:13;;;;;;;2.80;2.58;;;;;;;0.58;100.00;102567.06;6109760;23;20059;-75
2023/04/03 06:14:40;;;;;;;2.60;2.50;;;;;;;0.41;100.00;102524.56;6082142;23;20119;-75
2023/04/03 06:17:08;;;;;;;2.70;2.60;;;;;;;0.76;100.00;102561.38;6056949;23;20026;-77
2023/04/03 06:19:35;;;;;;;2.97;2.88;;;;;;;0.82;100.00;102556.31;6103658;23;20696;-76
2023/04/03 06:22:02;;;;;;;3.53;3.28;;;;;;;0.88;100.00;102571.97;6058192;23;20030;-76
2023/04/03 06:24:30;;;;;;;2.70;2.60;;;;;;;0.05;100.00;102423.16;6108806;23;20027;-76
2023/04/03 06:26:57;;;;;;;2.95;2.78;;;;;;;0.91;100.00;102545.28;6082267;23;20701;-77
2023/04/03 06:29:24;;;;;;;3.00;2.80;;;;;;;0.32;100.00;102425.41;6085684;23;20028;-76
2023/04/03 06:31:51;;;;;;;3.00;2.90;;;;;;;0.84;100.00;102507.25;6053316;23;20093;-77
2023/04/03 06:34:18;;;;;;;2.42;2.33;;;;;;;0.83;100.00;102498.63;6110953;23;21398;-76
2023/04/03 06:36:44;;;;;;;2.90;2.72;;;;;;;1.31;100.00;102551.13;6057015;23;20404;-77
2023/04/03 06:39:17;;;;;;;2.70;2.60;;;;;;;1.38;100.00;102540.91;6078358;23;20022;-76
2023/04/03 06:41:43;;;;;;;;;;;;;;;1.43;100.00;102545.28;6074524;23;20086;-76
2023/04/03 06:44:15;;;;;;;2.90;2.80;;;;;;;1.57;100.00;102542.03;6103294;23;19930;-72
2023/04/03 06:46:46;;;;;;;3.08;2.60;;;;;;;1.07;100.00;102471.44;6081668;23;20014;-73
2023/04/03 06:49:12;;;;;;;2.72;2.63;;;;;;;1.15;100.00;102469.84;6083337;23;20029;-74
2023/04/03 06:51:39;;;;;;;2.80;2.70;;;;;;;1.66;100.00;102528.34;6057596;23;20080;-74
2023/04/03 06:54:07;;;;;;;5.10;3.33;;;;;;;1.93;100.00;102547.72;6049767;23;20026;-74
2023/04/03 06:56:35;;;;;;;3.30;3.10;;;;;;;1.86;100.00;102533.81;6112355;23;20038;-73
2023/04/03 06:59:02;;;;;;;4.30;3.25;;;;;;;1.68;100.00;102500.78;6082953;23;20172;-74
2023/04/03 07:01:29;;;;;;;2.83;2.70;;;;;;;1.58;100.00;102455.81;6027673;23;20017;-73
2023/04/03 07:03:56;;;;;;;2.85;2.75;;;;;;;2.19;100.00;102542.88;6110077;23;20039;-76
2023/04/03 07:06:26;;;;;;;2.88;2.78;;;;;;;2.07;100.00;102514.25;6082193;23;20108;-74
2023/04/03 07:08:53;;;;;;;8.30;2.65;;;;;;;1.96;100.00;102485.59;6105364;23;20045;-74
2023/04/03 07:11:20;;;;;;;3.03;2.85;;;;;;;2.40;100.00;102532.75;6055999;23;20092;-73
2023/04/03 07:13:46;;;;;;;2.92;2.83;;;;;;;2.42;100.00;102519.81;6109000;23;20119;-77
2023/04/03 07:16:13;;;;;;;4.45;3.15;;;;;;;2.04;97.99;102436.50;6057543;23;20710;-76
2023/04/03 07:18:39;;;;;;;2.60;2.50;;;;;;;2.56;96.60;102502.69;6111341;23;20192;-76
2023/04/03 07:21:06;;;;;;;3.08;2.80;;;;;;;2.62;95.88;102501.88;6056389;23;20034;-76
2023/04/03 07:23:35;;;;;;;2.92;2.80;;;;;;;2.70;94.71;102500.22;6084323;23;20080;-74
2023/04/03 07:26:01;;;;;;;3.58;3.38;;;;;;;2.51;92.22;102439.59;6052276;23;20034;-73
2023/04/03 07:28:28;;;;;;;2.70;2.60;;;;;;;2.66;92.07;102458.72;6109158;23;20009;-75
2023/04/03 07:31:01;;;;;;;3.22;3.03;;;;;;;2.35;90.08;102383.31;6083131;23;20097;-74
2023/04/03 07:33:27;;;;;;;3.40;3.20;;;;;;;2.96;88.41;102453.78;6049316;23;20326;-74
2023/04/03 07:35:54;;;;;;;3.25;3.05;;;;;;;3.14;88.66;102462.56;6083598;23;20037;-74
2023/04/03 07:38:21;;;;;;;3.30;3.20;;;;;;;3.26;87.83;102459.19;6028481;23;20482;-73
2023/04/03 07:40:50;;;;;;;3.03;2.92;;;;;;;2.95;84.93;102366.47;6082034;23;20022;-73
2023/04/03 07:43:17;;;;;;;5.22;3.30;;;;;;;3.40;82.90;102421.22;6108478;23;20480;-73
2023/04/03 07:45:44;;;;;;;3.50;3.30;;;;;;;2.55;80.80;102239.19;6054055;23;20362;-73
2023/04/03 07:48:11;;;;;;;4.22;3.92;;;;;;;3.47;79.70;102363.28;6087551;23;20102;-73
2023/04/03 07:50:40;;;;;;;2.75;2.65;;;;;;;3.50;77.92;102323.50;6057758;23;20061;-74
2023/04/03 07:53:07;;;;;;;3.90;3.60;;;;;;;2.91;76.25;102200.50;6078733;23;20645;-76
2023/04/03 07:55:37;;;;;;;3.20;3.00;;;;;;;3.67;77.88;102331.31;6083009;23;20026;-76
2023/04/03 07:58:04;;;;;;;3.33;3.22;;;;;;;3.32;75.93;102238.66;6107323;23;20405;-75
2023/04/03 08:00:31;;;;;;;3.33;3.15;;;;;;;3.59;72.85;102212.78;6083009;23;20097;-77
2023/04/03 08:02:57;;;;;;;3.13;3.03;;;;;;;3.51;72.06;102162.59;6082653;23;20070;-76
2023/04/03 08:05:24;;;;;;;2.83;2.72;;;;;;;3.95;70.14;102192.88;6041804;23;20703;-75
2023/04/03 08:07:51;;;;;;;7.93;7.53;;;;;;;4.34;68.05;102192.81;6099430;23;20797;-77
2023/04/03 08:10:18;;;;;;;4.32;3.05;;;;;;;3.57;65.47;101980.88;6099091;18;20078;-76
2023/04/03 08:12:46;;;;;;;3.10;3.00;;;;;;;3.95;63.82;101974.69;6157659;23;20025;-76
2023/04/03 08:15:13;;;;;;;2.92;2.83;;;;;;;4.33;63.61;102033.44;6088856;23;20025;-77
2023/04/03 08:17:40;;;;;;;3.20;3.10;;;;;;;4.23;64.50;102046.44;6111122;23;20033;-76
2023/04/03 08:20:09;;;;;;;3.78;3.58;;;;;;;3.93;62.34;101921.00;6111089;23;20018;-75
2023/04/03 08:22:35;;;;;;;3.15;3.05;;;;;;;4.08;61.90;101912.28;6096018;23;20037;-76
2023/04/03 08:25:05;;;;;;;2.97;2.88;;;;;;;3.13;61.96;101787.28;6146272;23;20012;-76
2023/04/03 08:27:31;;;;;;;3.17;3.08;;;;;;;4.53;61.83;102001.25;6070330;23;20021;-76
2023/04/03 08:29:58;;;;;;;3.42;3.30;;;;;;;4.47;60.95;101957.97;6088446;23;20030;-76
2023/04/03 08:32:25;;;;;;;4.10;3.75;;;;;;;4.30;60.80;101892.25;6117520;23;20013;-77
2023/04/03 08:34:52;;;;;;;3.30;3.13;;;;;;;4.24;60.26;101895.75;6061557;23;20042;-75
2023/04/03 08:37:19;;;;;;;3.40;3.20;;;;;;;4.31;60.57;101884.44;6121174;23;20024;-75
2023/04/03 08:39:45;;;;;;;4.43;3.53;;;;;;;3.80;57.81;101726.34;6143675;23;20032;-75
2023/04/03 08:42:51;;;;;;;3.08;2.97;;;;;;;4.69;58.08;101851.19;6115459;23;20092;-75
2023/04/03 08:45:34;;;;;;;3.20;3.10;;;;;;;4.56;57.26;101785.47;6110612;23;20510;-75
2023/04/03 08:48:13;;;;;;;3.25;3.15;;;;;;;5.06;58.16;101877.72;6066557;23;20025;-73
2023/04/03 08:50:45;;;;;;;2.95;2.85;;;;;;;5.32;56.88;101845.34;6089189;23;20681;-75
2023/04/03 08:53:18;;;;;;;3.13;3.03;;;;;;;4.76;56.12;101700.28;6119387;23;20020;-76
2023/04/03 08:55:50;;;;;;;3.20;3.10;;;;;;;4.00;52.62;101430.09;6119206;23;20032;-75
2023/04/03 08:58:23;;;;;;;3.10;3.00;;;;;;;5.23;54.52;101684.09;6091107;23;20627;-76
2023/04/03 09:00:55;;;;;;;3.17;3.08;;;;;;;4.75;54.13;101617.09;6144999;23;20041;-77
2023/04/03 09:03:22;;;;;;;6.47;3.95;;;;;;;5.26;52.33;101596.44;6108037;23;20025;-76
2023/04/03 09:06:04;;;;;;;3.10;3.00;;;;;;;5.86;49.77;101545.06;6144627;23;20025;-77
2023/04/03 09:09:26;;;;;;;2.95;2.85;;;;;;;5.95;49.57;101577.06;6118954;23;20391;-75
2023/04/03 09:12:00;;;;;;;3.15;3.05;;;;;;;5.16;47.61;101332.06;6108013;23;20017;-76
2023/04/03 09:14:39;;;;;;;3.00;2.90;;;;;;;6.02;49.71;101601.25;6097471;23;20509;-76
2023/04/03 09:17:12;;;;;;;3.25;3.13;;;;;;;6.14;50.58;101636.63;6122569;23;20260;-76
2023/04/03 09:19:48;;;;;;;;;;;;;;;6.17;48.22;101514.06;6069342;23;20144;-75
2023/04/03 09:22:25;;;;;;;3.20;3.10;;;;;;;5.89;47.47;101419.94;6077488;23;19982;-76
2023/04/03 09:25:15;;;;;;;3.28;3.08;;;;;;;6.19;46.93;101488.81;6155273;23;20519;-76
2023/04/03 09:27:42;;;;;;;3.35;3.15;;;;;;;4.79;47.47;101213.09;6077876;23;20061;-76
2023/04/03 09:30:29;;;;;;;3.47;3.17;;;;;;;5.96;46.90;101362.50;6121105;23;20080;-75
2023/04/03 09:32:57;;;;;;;5.88;3.67;;;;;;;6.41;46.33;101451.88;6069967;23;20025;-75
2023/04/03 09:35:26;;;;;;;3.40;3.20;;;;;;;6.28;46.49;101407.84;6148066;23;20057;-74
2023/04/03 09:38:08;;;;;;;3.38;3.28;;;;;;;6.52;46.62;101457.72;6092984;23;20596;-75
2023/04/03 09:40:49;;;;;;;3.50;3.30;;;;;;;6.70;47.18;101500.75;6093686;23;20037;-75
2023/04/03 09:43:24;;;;;;;3.55;3.35;;;;;;;6.11;46.11;101324.81;6088217;23;20552;-76
2023/04/03 09:45:52;;;;;;;3.40;3.20;;;;;;;6.28;47.78;101418.25;6095990;23;20032;-76
2023/04/03 09:48:24;;;;;;;3.50;3.30;;;;;;;6.59;48.69;101553.16;6147572;23;20016;-75
2023/04/03 09:50:55;;;;;;;3.60;3.30;;;;;;;6.17;47.26;101421.13;6096016;23;20613;-77
2023/04/03 09:53:28;;;;;;;3.63;3.42;;;;;;;6.35;47.49;101430.28;6141056;23;20016;-76
2023/04/03 09:55:55;;;;;;;3.30;3.20;;;;;;;6.66;48.55;101518.22;6084188;23;20026;-77
2023/04/03 09:58:33;;;;;;;4.03;3.38;;;;;;;6.31;48.73;101459.88;6111327;23;20021;-76
2023/04/03 10:01:26;;;;;;;;;;;;;;;6.45;49.47;101579.53;6098368;23;20482;-75
2023/04/03 10:04:05;;;;;;;3.70;3.47;;;;;;;6.68;49.81;101565.16;6116067;23;19924;-74
2023/04/03 10:06:35;;;;;;;3.65;3.35;;;;;;;6.64;50.18;101621.75;6119138;23;20793;-75
2023/04/03 10:09:16;;;;;;;4.15;3.85;;;;;;;5.98;50.30;101427.63;6141423;23;20053;-77
2023/04/03 10:12:11;;;;;;;3.35;3.22;;;;;;;7.29;49.28;101589.81;6094064;23;20077;-75
2023/04/03 10:15:00;;;;;;;3.45;3.28;;;;;;;7.21;49.44;101559.56;6087892;23;20037;-75
2023/04/03 10:17:44;;;;;;;3.65;3.45;;;;;;;7.17;51.64;101631.88;6134017;23;20087;-75
2023/04/03 10:20:20;;;;;;;3.42;3.33;;;;;;;7.08;52.51;101707.81;6065456;23;20083;-75
2023/04/03 10:22:55;;;;;;;3.92;3.63;;;;;;;7.15;50.77;101646.72;6090668;23;20024;-75
2023/04/03 10:25:43;;;;;;;3.63;3.42;;;;;;;7.26;50.55;101631.69;6123543;23;20033;-76
2023/04/03 10:28:25;;;;;;;4.00;3.80;;;;;;;6.78;49.51;101475.34;6058658;23;20029;-76
2023/04/03 10:31:21;;;;;;;3.35;3.25;;;;;;;6.61;50.26;101524.44;6091663;23;20480;-76
2023/04/03 10:34:28;;;;;;;3.00;2.90;;;;;;;7.16;50.68;101602.31;6102148;23;20080;-76
2023/04/03 10:37:51;;;;;;;3.80;3.40;;;;;;;7.18;50.27;101581.41;6051220;23;20079;-77
2023/04/03 10:40:32;;;;;;;3.78;3.58;;;;;;;7.56;51.52;101671.03;6069270;23;20417;-76
2023/04/03 10:43:09;;;;;;;3.38;3.28;;;;;;;7.69;48.47;101567.91;6119832;23;20031;-77
2023/04/03 10:46:11;;;;;;;3.80;3.60;;;;;;;7.90;46.27;101461.13;6117818;23;20029;-77
2023/04/03 10:49:01;;;;;;;3.50;3.40;;;;;;;8.12;44.78;101422.97;6110844;23;20033;-76
2023/04/03 10:51:37;;;;;;;3.80;3.60;;;;;;;7.80;43.62;101329.88;6093918;23;20101;-77
2023/04/03 10:54:26;;;;;;;3.55;3.45;;;;;;;7.13;44.67;101252.59;6140467;23;20075;-77
2023/04/03 10:56:55;;;;;;;6.25;3.92;;;;;;;8.06;45.08;101417.06;6096443;23;20033;-77
2023/04/03 10:59:43;;;;;;;3.80;3.60;;;;;;;8.44;42.95;101413.31;6089493;23;20041;-76
2023/04/03 11:02:53;;;;;;;4.93;3.97;;;;;;;8.11;42.58;101303.59;6116240;23;20506;-76
2023/04/03 11:05:39;;;;;;;3.72;3.47;;;;;;;8.02;41.37;101229.84;6047740;23;20048;-77
2023/04/03 11:08:16;;;;;;;3.50;3.40;;;;;;;8.54;41.43;101338.00;6141390;23;20037;-77
2023/04/03 11:10:48;;;;;;;3.60;3.50;;;;;;;8.62;40.34;101293.25;6075484;23;20081;-76
2023/04/03 11:13:17;;;;;;;3.90;3.70;;;;;;;8.75;42.51;101409.69;6134705;23;20009;-76
2023/04/03 11:15:46;;;;;;;5.32;3.55;;;;;;;8.19;44.47;101406.19;6093867;23;20037;-77
2023/04/03 11:18:21;;;;;;;3.95;3.75;;;;;;;8.07;46.03;101476.28;6142226;23;20025;-78
2023/04/03 11:21:00;;;;;;;3.60;3.40;;;;;;;8.40;44.69;101471.81;6117616;23;20389;-78
2023/04/03 11:23:35;;;;;;;3.80;3.60;;;;;;;8.03;43.04;101334.38;6144288;23;20008;-77
2023/04/03 11:26:22;;;;;;;3.97;3.78;;;;;;;7.59;42.82;101269.50;6115565;23;20590;-76
2023/04/03 11:28:58;;;;;;;3.90;3.60;;;;;;;8.19;41.03;101305.97;6141762;23;20024;-76
2023/04/03 11:31:42;;;;;;;3.60;3.50;;;;;;;8.36;41.48;101313.28;6086278;23;20532;-77
2023/04/03 11:34:27;;;;;;;4.10;3.90;;;;;;;8.28;40.46;101284.78;6108519;23;20033;-76
2023/04/03 11:37:00;;;;;;;3.45;3.30;;;;;;;7.76;42.84;101308.19;6092527;23;20436;-78
2023/04/03 11:39:30;;;;;;;;;;;;;;;8.20;44.13;101448.91;6116480;23;20029;-76
2023/04/03 11:42:29;;;;;;;4.25;3.72;;;;;;;7.83;43.49;101350.66;6117261;23;20568;-76